Time;durP1;ratioP1;P1;durP2;ratioP2;P2;SDS_P1;SDS_P2;PMS_P1;PMS_P2;Temp;Humidity;BMP_temperature;BMP_pressure;BME280_temperature;BME280_humidity;BME280_pressure;Samples;Min_cycle;Max_cycle;Signal;HPM_P1;HPM_P2
2022/12/09 00:01:36;;;;;;;26.27;16.27;;;-8.90;99.90;;;;;;5017201;28;20254;-73
2022/12/09 00:04:02;;;;;;;25.67;15.33;;;-8.70;99.90;;;;;;5017431;28;20201;-74
2022/12/09 00:13:51;;;;;;;23.63;17.77;;;-8.20;99.90;;;;;;5105773;27;20589;-75
2022/12/09 00:16:17;;;;;;;24.97;16.23;;;-7.80;99.90;;;;;;5100326;28;20882;-73
2022/12/09 00:18:43;;;;;;;25.73;15.93;;;-7.90;99.90;;;;;;5098748;28;20415;-76
2022/12/09 00:21:14;;;;;;;29.10;15.63;;;-8.60;99.90;;;;;;5104958;28;20450;-76
2022/12/09 00:23:40;;;;;;;26.47;15.93;;;-8.70;99.90;;;;;;5071273;28;20504;-75
2022/12/09 00:26:06;;;;;;;23.57;16.53;;;-9.10;99.90;;;;;;5100635;28;20437;-75
2022/12/09 00:28:31;;;;;;;20.70;15.43;;;-9.00;99.90;;;;;;5098376;28;20433;-75
2022/12/09 00:31:01;;;;;;;21.47;13.80;;;-8.60;99.90;;;;;;5099949;28;20190;-74
2022/12/09 00:33:29;;;;;;;21.17;15.50;;;-8.90;99.90;;;;;;5098200;28;20648;-74
2022/12/09 00:36:01;;;;;;;21.70;15.63;;;-8.80;99.90;;;;;;5095182;28;20517;-74
2022/12/09 00:38:27;;;;;;;24.77;16.80;;;-8.70;99.90;;;;;;5090788;28;20513;-77
2022/12/09 00:40:52;;;;;;;28.00;16.43;;;-8.40;99.90;;;;;;5099236;28;20544;-73
2022/12/09 00:43:18;;;;;;;23.03;14.43;;;-8.20;99.90;;;;;;5093240;28;20214;-74
2022/12/09 00:45:44;;;;;;;21.03;14.90;;;-8.10;99.90;;;;;;5098028;28;20276;-74
2022/12/09 00:48:10;;;;;;;24.03;15.67;;;-7.80;99.90;;;;;;5095711;28;20193;-74
2022/12/09 00:50:36;;;;;;;20.80;14.43;;;-7.90;99.90;;;;;;5098426;28;20281;-73
2022/12/09 00:53:02;;;;;;;25.90;16.40;;;-7.90;99.90;;;;;;5099974;28;20552;-74
2022/12/09 00:55:27;;;;;;;19.53;14.37;;;-6.70;99.90;;;;;;5100359;28;20189;-74
2022/12/09 00:57:53;;;;;;;29.37;17.33;;;-8.00;99.90;;;;;;5100845;28;20639;-74
2022/12/09 01:00:19;;;;;;;23.37;17.03;;;-8.40;99.90;;;;;;5092406;28;20181;-74
2022/12/09 01:02:45;;;;;;;29.80;16.17;;;-7.50;99.90;;;;;;5100806;28;20183;-75
2022/12/09 01:05:10;;;;;;;24.53;15.73;;;-8.80;99.90;;;;;;5099029;28;20236;-72
2022/12/09 01:07:36;;;;;;;24.10;14.63;;;-9.10;99.90;;;;;;5103945;28;20186;-75
2022/12/09 01:10:04;;;;;;;26.60;15.67;;;-9.20;99.90;;;;;;5100975;28;20191;-75
2022/12/09 01:12:30;;;;;;;20.67;16.73;;;-8.80;99.90;;;;;;5100868;28;20208;-75
2022/12/09 01:14:56;;;;;;;22.57;15.27;;;-8.80;99.90;;;;;;5102691;28;20430;-75
2022/12/09 01:17:21;;;;;;;17.70;15.37;;;-7.00;99.90;;;;;;5099225;28;20429;-72
2022/12/09 01:19:47;;;;;;;24.17;17.00;;;-6.80;99.90;;;;;;5106084;28;20184;-73
2022/12/09 01:22:13;;;;;;;34.33;16.27;;;-6.30;99.90;;;;;;5096285;28;20205;-75
2022/12/09 01:24:38;;;;;;;24.83;16.20;;;-7.10;99.90;;;;;;5086404;28;20193;-71
2022/12/09 01:27:04;;;;;;;25.70;18.07;;;-8.50;99.90;;;;;;5085593;28;20179;-75
2022/12/09 01:29:30;;;;;;;20.53;15.17;;;-7.90;99.90;;;;;;5088889;28;20234;-74
2022/12/09 01:31:56;;;;;;;23.80;17.03;;;-7.80;99.90;;;;;;5082468;28;20257;-74
2022/12/09 01:34:21;;;;;;;25.57;18.70;;;-8.50;99.90;;;;;;5089539;28;20192;-72
2022/12/09 01:36:47;;;;;;;25.83;16.97;;;-8.30;99.90;;;;;;5081284;28;20181;-74
2022/12/09 01:39:13;;;;;;;25.87;17.47;;;-8.40;99.90;;;;;;5081407;28;20269;-75
2022/12/09 01:41:39;;;;;;;28.70;15.10;;;-8.10;99.90;;;;;;5088397;28;20186;-75
2022/12/09 01:44:10;;;;;;;25.37;17.10;;;-7.20;99.90;;;;;;5084688;28;20474;-77
2022/12/09 01:46:36;;;;;;;30.50;18.07;;;-8.40;99.90;;;;;;5082403;28;20422;-78
2022/12/09 01:49:02;;;;;;;27.70;17.50;;;-6.60;99.90;;;;;;5085375;28;20475;-77
2022/12/09 01:51:28;;;;;;;26.90;17.17;;;-8.20;99.90;;;;;;5083239;28;20177;-76
2022/12/09 01:53:55;;;;;;;28.17;16.73;;;-6.90;99.90;;;;;;5084524;28;20449;-75
2022/12/09 01:56:27;;;;;;;32.17;18.10;;;-8.10;99.90;;;;;;5086383;28;20184;-77
2022/12/09 01:58:53;;;;;;;34.43;17.90;;;-8.40;99.90;;;;;;5084302;28;20515;-77
2022/12/09 02:01:20;;;;;;;32.90;18.90;;;-8.00;99.90;;;;;;5085003;28;20743;-74
2022/12/09 02:03:46;;;;;;;29.17;17.37;;;-8.60;99.90;;;;;;5080611;28;20458;-77
2022/12/09 02:06:13;;;;;;;25.47;17.33;;;-8.30;99.90;;;;;;5086241;28;20432;-74
2022/12/09 02:08:39;;;;;;;30.90;18.90;;;-8.40;99.90;;;;;;5082066;28;20440;-76
2022/12/09 02:11:38;;;;;;;28.60;17.23;;;-8.70;99.90;;;;;;5082292;28;20876;-77
2022/12/09 02:14:15;;;;;;;25.47;17.60;;;-8.20;99.90;;;;;;5078084;28;20436;-76
2022/12/09 02:16:53;;;;;;;29.20;17.43;;;-8.20;99.90;;;;;;5084198;28;20455;-77
2022/12/09 02:20:00;;;;;;;28.63;17.33;;;-8.00;99.90;;;;;;5082908;28;20433;-75
2022/12/09 02:22:36;;;;;;;24.33;16.87;;;-9.00;99.90;;;;;;5080389;28;20419;-76
2022/12/09 02:25:29;;;;;;;32.87;18.33;;;-9.50;99.90;;;;;;5076044;28;20430;-74
2022/12/09 02:28:19;;;;;;;24.13;16.30;;;-9.50;99.90;;;;;;5076936;28;20648;-74
2022/12/09 02:30:55;;;;;;;30.30;17.77;;;-9.20;99.90;;;;;;5084522;28;20451;-77
2022/12/09 02:33:43;;;;;;;26.63;16.20;;;-9.30;99.90;;;;;;5092105;28;20455;-77
2022/12/09 02:36:15;;;;;;;31.37;19.90;;;-9.40;99.90;;;;;;5078646;28;20421;-75
2022/12/09 02:38:42;;;;;;;28.73;18.17;;;-10.20;99.90;;;;;;5085159;28;20582;-75
2022/12/09 02:41:23;;;;;;;25.77;16.23;;;-9.70;99.90;;;;;;5083990;28;20415;-77
2022/12/09 02:44:00;;;;;;;25.77;16.63;;;-9.20;99.90;;;;;;5076439;28;20428;-77
2022/12/09 02:46:27;;;;;;;24.47;17.20;;;-9.40;99.90;;;;;;5083498;28;20909;-76
2022/12/09 02:48:56;;;;;;;30.63;17.33;;;-10.00;99.90;;;;;;5077124;28;20462;-77
2022/12/09 02:51:25;;;;;;;27.07;16.43;;;-9.70;99.90;;;;;;5085898;28;20427;-75
2022/12/09 02:54:02;;;;;;;26.33;17.33;;;-10.00;99.90;;;;;;5078815;28;20442;-78
2022/12/09 02:56:28;;;;;;;24.20;16.60;;;-9.00;99.90;;;;;;5088887;28;20419;-75
2022/12/09 02:58:54;;;;;;;24.97;15.97;;;-10.70;99.90;;;;;;5084968;28;20439;-75
2022/12/09 03:01:28;;;;;;;30.07;18.00;;;-9.50;99.90;;;;;;5084978;28;20167;-74
2022/12/09 03:03:54;;;;;;;26.10;15.37;;;-10.50;99.90;;;;;;5082161;28;21077;-75
2022/12/09 03:06:26;;;;;;;23.10;16.17;;;-10.60;99.90;;;;;;5082873;28;20515;-76
2022/12/09 03:08:59;;;;;;;24.60;16.03;;;-10.40;99.90;;;;;;5089932;28;20884;-75
2022/12/09 03:11:26;;;;;;;34.23;18.63;;;-10.50;99.90;;;;;;5081017;28;20440;-75
2022/12/09 03:13:58;;;;;;;32.20;18.27;;;-10.80;99.90;;;;;;5086277;28;20421;-76
2022/12/09 03:16:33;;;;;;;28.13;16.53;;;-10.40;99.90;;;;;;5082345;28;20464;-73
2022/12/09 03:19:24;;;;;;;29.03;16.80;;;-9.50;99.90;;;;;;5083581;28;20469;-74
2022/12/09 03:21:54;;;;;;;26.20;16.93;;;-10.50;99.90;;;;;;5082786;28;20523;-75
2022/12/09 03:24:26;;;;;;;26.83;16.43;;;-8.40;99.90;;;;;;5085163;28;20872;-77
2022/12/09 03:26:53;;;;;;;31.30;19.57;;;-10.40;99.90;;;;;;5078174;28;20575;-76
2022/12/09 03:29:24;;;;;;;31.93;18.53;;;-10.40;99.90;;;;;;5079191;28;20427;-77
2022/12/09 03:31:51;;;;;;;25.40;16.63;;;-10.10;99.90;;;;;;5083138;28;20546;-75
2022/12/09 03:34:24;;;;;;;28.37;17.10;;;-10.10;99.90;;;;;;5081588;28;20774;-76
2022/12/09 03:36:51;;;;;;;23.40;15.37;;;-9.90;99.90;;;;;;5087438;28;20452;-76
2022/12/09 03:39:24;;;;;;;27.77;18.13;;;-9.70;99.90;;;;;;5081196;28;20420;-77
2022/12/09 03:41:55;;;;;;;34.20;17.57;;;-9.40;99.90;;;;;;5079522;28;20440;-77
2022/12/09 03:44:36;;;;;;;29.70;17.20;;;-9.50;99.90;;;;;;5084528;28;20420;-74
2022/12/09 03:47:03;;;;;;;31.17;16.80;;;-9.20;99.90;;;;;;5074472;28;20525;-76
2022/12/09 03:49:30;;;;;;;30.73;19.50;;;-8.70;99.90;;;;;;5087215;28;20419;-73
2022/12/09 03:52:14;;;;;;;30.87;18.50;;;-8.70;99.90;;;;;;5082430;28;20484;-76
2022/12/09 03:54:49;;;;;;;36.50;18.40;;;-9.20;99.90;;;;;;5075432;28;20450;-74
2022/12/09 04:10:14;;;;;;;36.47;21.87;;;-9.40;99.90;;;;;;5062840;28;20609;-74
2022/12/09 04:12:40;;;;;;;30.80;19.20;;;-6.90;99.90;;;;;;5050158;28;20420;-73
2022/12/09 04:15:06;;;;;;;31.27;18.80;;;-8.20;99.90;;;;;;5049600;28;20185;-74
2022/12/09 04:17:32;;;;;;;33.03;18.07;;;-8.60;99.90;;;;;;5049120;28;20456;-74
2022/12/09 04:19:58;;;;;;;37.57;18.23;;;-9.30;99.90;;;;;;5049076;28;20432;-74
2022/12/09 04:22:24;;;;;;;33.50;17.30;;;-9.40;99.90;;;;;;5050886;28;20186;-74
2022/12/09 04:24:49;;;;;;;32.00;18.77;;;-9.00;99.90;;;;;;5049157;28;20183;-74
2022/12/09 04:27:15;;;;;;;42.30;19.03;;;-8.40;99.90;;;;;;5049554;28;20181;-73
2022/12/09 04:29:41;;;;;;;31.20;18.47;;;-8.60;99.90;;;;;;5056853;28;20203;-75
2022/12/09 04:32:07;;;;;;;37.13;20.63;;;-8.50;99.90;;;;;;5048644;28;20215;-75
2022/12/09 04:34:33;;;;;;;27.47;15.03;;;-8.70;99.90;;;;;;5049023;28;20181;-75
2022/12/09 04:36:58;;;;;;;37.33;19.90;;;-7.50;99.90;;;;;;5062731;28;20205;-75
2022/12/09 04:39:24;;;;;;;39.83;17.93;;;-8.40;99.90;;;;;;5049820;28;20182;-75
2022/12/09 04:41:50;;;;;;;35.93;17.50;;;-9.00;99.90;;;;;;5048990;28;20186;-72
2022/12/09 04:44:16;;;;;;;34.90;17.47;;;-8.70;99.90;;;;;;5049382;28;22038;-73
2022/12/09 04:46:41;;;;;;;50.57;17.57;;;-7.10;99.90;;;;;;5053742;28;20184;-72
2022/12/09 04:49:07;;;;;;;35.40;17.47;;;-8.50;99.90;;;;;;5049457;28;20200;-72
2022/12/09 04:51:33;;;;;;;50.90;18.27;;;-8.60;99.90;;;;;;5049055;28;20259;-73
2022/12/09 04:53:59;;;;;;;32.63;17.40;;;-8.50;99.90;;;;;;5049577;28;20188;-74
2022/12/09 04:56:25;;;;;;;48.83;17.83;;;-8.40;99.90;;;;;;5052986;28;20172;-74
2022/12/09 04:58:51;;;;;;;34.87;16.63;;;-8.30;99.90;;;;;;5049346;28;21118;-75
2022/12/09 05:01:19;;;;;;;31.80;15.57;;;-6.80;99.90;;;;;;5048745;28;20276;-73
2022/12/09 05:03:50;;;;;;;46.03;16.47;;;-9.90;99.90;;;;;;5048725;28;20267;-73
2022/12/09 05:06:18;;;;;;;48.90;17.13;;;-9.40;99.90;;;;;;5049110;28;20427;-72
2022/12/09 05:24:03;;;;;;;44.73;18.53;;;-9.70;99.90;;;;;;5052941;28;21126;-71
2022/12/09 05:26:29;;;;;;;48.43;16.50;;;-8.70;99.90;;;;;;5052503;28;20868;-74
2022/12/09 05:28:55;;;;;;;44.00;14.33;;;-8.60;99.90;;;;;;5052443;28;20438;-73
2022/12/09 05:31:22;;;;;;;36.70;16.03;;;-8.50;99.90;;;;;;5052395;28;20495;-74
2022/12/09 05:33:49;;;;;;;43.33;15.43;;;-8.80;99.90;;;;;;5054051;28;20489;-75
2022/12/09 05:36:18;;;;;;;39.43;15.60;;;-8.70;99.90;;;;;;5064687;28;20436;-74
2022/12/09 05:38:44;;;;;;;40.20;17.17;;;-8.70;99.90;;;;;;5060138;28;20415;-74
2022/12/09 05:41:10;;;;;;;45.60;16.83;;;-8.80;99.90;;;;;;5061105;28;20426;-75
2022/12/09 05:43:36;;;;;;;38.57;14.93;;;-8.80;99.90;;;;;;5060054;28;20916;-75
2022/12/09 05:46:03;;;;;;;58.53;16.03;;;-8.80;99.90;;;;;;5056123;28;20182;-72
2022/12/09 05:48:28;;;;;;;44.90;13.97;;;-8.90;99.90;;;;;;5060241;28;20195;-73
2022/12/09 05:51:06;;;;;;;56.13;15.90;;;-9.80;99.90;;;;;;5053866;28;20427;-73
2022/12/09 05:53:32;;;;;;;78.10;16.47;;;-9.70;99.90;;;;;;5055925;28;20652;-73
2022/12/09 05:55:59;;;;;;;57.00;17.33;;;-9.20;99.90;;;;;;5065703;28;20461;-73
2022/12/09 06:05:19;;;;;;;63.23;18.33;;;-9.50;99.90;;;;;;5115079;27;20275;-76
2022/12/09 06:07:44;;;;;;;56.93;17.07;;;-9.30;99.90;;;;;;5118389;28;20430;-77
2022/12/09 06:10:10;;;;;;;146.27;22.23;;;-9.30;99.90;;;;;;5119997;28;20188;-76
2022/12/09 06:12:36;;;;;;;42.23;14.83;;;-9.40;99.90;;;;;;5120936;28;20179;-77
2022/12/09 06:15:02;;;;;;;44.73;15.53;;;-9.90;99.90;;;;;;5104603;27;20185;-76
2022/12/09 06:17:28;;;;;;;44.17;17.37;;;-9.70;99.90;;;;;;5113356;28;20182;-76
2022/12/09 06:19:54;;;;;;;56.53;15.27;;;-9.60;99.90;;;;;;5134520;27;20184;-74
2022/12/09 06:22:20;;;;;;;43.20;15.30;;;-9.30;99.90;;;;;;5096898;28;20442;-73
2022/12/09 06:24:46;;;;;;;40.50;18.53;;;-9.30;99.90;;;;;;5101096;28;20238;-75
2022/12/09 06:27:11;;;;;;;53.43;17.40;;;-8.90;99.90;;;;;;5118250;28;20466;-73
2022/12/09 06:29:37;;;;;;;33.43;16.90;;;-9.00;99.90;;;;;;5117446;28;20183;-73
2022/12/09 06:32:03;;;;;;;40.40;17.17;;;-7.70;99.90;;;;;;5126274;27;20179;-76
2022/12/09 06:34:29;;;;;;;61.77;17.73;;;-8.60;99.90;;;;;;5113283;28;20945;-75
2022/12/09 06:36:55;;;;;;;31.47;14.33;;;-8.70;99.90;;;;;;5119396;27;20325;-75
2022/12/09 06:39:21;;;;;;;50.53;15.33;;;-8.30;99.90;;;;;;5126228;28;20271;-73
2022/12/09 06:41:46;;;;;;;57.60;16.43;;;-8.30;99.90;;;;;;5118177;28;20910;-73
2022/12/09 06:44:15;;;;;;;41.13;15.90;;;-8.30;99.90;;;;;;5098298;28;20220;-73
2022/12/09 06:46:41;;;;;;;68.70;18.13;;;-8.10;99.90;;;;;;5112511;28;20187;-74
2022/12/09 06:49:08;;;;;;;50.73;15.90;;;-8.00;99.90;;;;;;5097748;28;20740;-75
2022/12/09 06:51:33;;;;;;;48.07;18.13;;;-8.10;99.90;;;;;;5118853;27;20209;-73
2022/12/09 06:53:59;;;;;;;54.97;17.43;;;-8.00;99.90;;;;;;5124595;27;20484;-74
2022/12/09 06:56:26;;;;;;;50.13;15.97;;;-7.90;99.90;;;;;;5118845;28;20193;-73
2022/12/09 06:58:52;;;;;;;43.70;17.13;;;-7.50;99.90;;;;;;5115477;27;20585;-73
2022/12/09 07:01:23;;;;;;;35.70;16.77;;;-7.40;99.90;;;;;;5114668;28;20437;-74
2022/12/09 07:03:51;;;;;;;70.87;16.60;;;-7.70;99.90;;;;;;5112065;28;20212;-73
2022/12/09 07:06:37;;;;;;;48.80;15.50;;;-7.80;99.90;;;;;;5112441;28;20723;-72
2022/12/09 07:09:06;;;;;;;74.50;18.07;;;-8.10;99.90;;;;;;5112121;27;20424;-76
2022/12/09 07:11:32;;;;;;;72.70;16.93;;;-7.90;99.90;;;;;;5122299;28;20427;-75
2022/12/09 07:14:02;;;;;;;58.27;18.13;;;-7.70;99.90;;;;;;5116789;28;20432;-76
2022/12/09 07:16:28;;;;;;;53.13;27.47;;;-8.00;99.90;;;;;;5104893;28;20192;-75
2022/12/09 07:18:56;;;;;;;77.90;18.47;;;-8.20;99.90;;;;;;5106014;28;20420;-76
2022/12/09 07:21:23;;;;;;;109.57;34.33;;;-8.30;99.90;;;;;;5102675;28;20751;-76
2022/12/09 07:23:49;;;;;;;93.03;22.20;;;-8.60;99.90;;;;;;5102007;28;20460;-77
2022/12/09 07:26:16;;;;;;;49.67;19.10;;;-8.80;99.90;;;;;;5097759;28;20430;-76
2022/12/09 07:28:42;;;;;;;69.90;19.90;;;-8.60;99.90;;;;;;5097705;28;20525;-75
2022/12/09 07:31:26;;;;;;;66.70;23.57;;;-8.60;99.90;;;;;;5104120;28;20434;-74
2022/12/09 07:33:54;;;;;;;86.60;24.07;;;-8.30;99.90;;;;;;5101298;28;20464;-77
2022/12/09 07:36:21;;;;;;;49.07;20.87;;;-8.20;99.90;;;;;;5101564;28;20434;-76
2022/12/09 07:38:48;;;;;;;65.63;22.83;;;-8.30;99.90;;;;;;5095802;28;20428;-75
2022/12/09 07:41:16;;;;;;;109.77;33.57;;;-8.00;99.90;;;;;;5101465;28;20428;-73
2022/12/09 07:43:46;;;;;;;77.40;24.27;;;-8.10;99.90;;;;;;5097562;28;20902;-76
2022/12/09 07:46:13;;;;;;;81.33;21.77;;;-6.10;99.90;;;;;;5102452;28;20807;-76
2022/12/09 07:48:39;;;;;;;114.00;23.97;;;-7.80;99.90;;;;;;5098887;28;20431;-75
2022/12/09 07:51:05;;;;;;;100.70;23.40;;;-7.70;99.90;;;;;;5108460;28;20425;-75
2022/12/09 07:53:34;;;;;;;86.60;21.83;;;-8.00;99.90;;;;;;5097318;28;20452;-76
2022/12/09 07:56:05;;;;;;;87.43;23.97;;;-7.50;99.90;;;;;;5101181;28;20433;-77
2022/12/09 07:58:32;;;;;;;61.80;23.47;;;-6.20;99.90;;;;;;5103981;28;20559;-77
2022/12/09 08:01:09;;;;;;;79.17;25.00;;;-6.10;99.90;;;;;;5097824;28;20521;-75
2022/12/09 08:03:35;;;;;;;61.60;24.03;;;-7.70;99.90;;;;;;5096924;28;20470;-76
2022/12/09 08:06:01;;;;;;;62.00;20.80;;;-6.70;99.90;;;;;;5097858;28;20745;-75
2022/12/09 08:08:26;;;;;;;61.13;21.07;;;-7.60;99.90;;;;;;5101706;28;20428;-76
2022/12/09 08:10:53;;;;;;;61.00;23.57;;;-7.60;99.90;;;;;;5099589;28;20262;-76
2022/12/09 08:13:19;;;;;;;65.87;21.53;;;-8.30;99.90;;;;;;5097113;28;20310;-75
2022/12/09 08:15:46;;;;;;;70.67;22.97;;;-8.20;99.90;;;;;;5101518;28;20441;-74
2022/12/09 08:18:11;;;;;;;67.73;20.70;;;-6.30;99.90;;;;;;5102166;28;20459;-75
2022/12/09 08:20:38;;;;;;;52.17;18.77;;;-7.60;99.90;;;;;;5102008;28;20884;-74
2022/12/09 08:23:04;;;;;;;73.23;23.00;;;-8.40;99.90;;;;;;5103794;28;20190;-75
2022/12/09 08:25:30;;;;;;;56.63;20.80;;;-8.90;99.90;;;;;;5102289;28;20426;-74
2022/12/09 08:27:57;;;;;;;47.27;21.30;;;-9.00;99.90;;;;;;5095453;28;20209;-74
2022/12/09 08:30:23;;;;;;;51.03;21.27;;;-6.60;99.90;;;;;;5096600;28;20425;-75
2022/12/09 08:32:48;;;;;;;60.73;21.73;;;-9.40;99.90;;;;;;5095015;28;20705;-75
2022/12/09 08:35:14;;;;;;;38.37;19.43;;;-9.90;99.90;;;;;;5096030;28;20186;-76
2022/12/09 08:37:41;;;;;;;48.47;21.67;;;-9.50;99.90;;;;;;5101593;28;20220;-76
2022/12/09 08:40:07;;;;;;;395.50;81.33;;;-9.40;99.90;;;;;;5100568;28;20191;-75
2022/12/09 08:42:33;;;;;;;115.10;34.17;;;-9.00;99.90;;;;;;5095470;28;20437;-76
2022/12/09 08:44:59;;;;;;;46.37;23.40;;;-9.00;99.90;;;;;;5096132;28;20466;-75
2022/12/09 08:47:26;;;;;;;44.20;18.57;;;-9.30;99.90;;;;;;5096035;28;20262;-76
2022/12/09 08:49:52;;;;;;;39.83;19.63;;;-9.50;99.90;;;;;;5095047;28;20177;-75
2022/12/09 08:52:18;;;;;;;43.63;19.10;;;-9.20;99.90;;;;;;5103888;28;20798;-75
2022/12/09 08:54:44;;;;;;;38.40;18.70;;;-9.30;99.90;;;;;;5095564;28;20612;-75
2022/12/09 08:57:10;;;;;;;43.47;19.37;;;-7.40;99.90;;;;;;5096053;28;20486;-75
2022/12/09 08:59:35;;;;;;;39.33;18.37;;;-9.00;99.90;;;;;;5100586;28;20220;-75
2022/12/09 09:02:01;;;;;;;36.50;17.57;;;-8.80;99.90;;;;;;5107093;28;20181;-74
2022/12/09 09:04:27;;;;;;;131.73;33.90;;;-9.10;99.90;;;;;;5099829;28;21029;-75
2022/12/09 09:06:53;;;;;;;81.90;25.77;;;-9.20;99.90;;;;;;5099631;28;20181;-77
2022/12/09 09:09:19;;;;;;;34.47;16.20;;;-9.40;99.90;;;;;;5099873;28;20184;-75
2022/12/09 09:11:45;;;;;;;49.10;20.03;;;-9.40;99.90;;;;;;5094907;28;20182;-76
2022/12/09 09:14:13;;;;;;;32.17;17.47;;;-10.40;99.90;;;;;;5096656;28;20480;-75
2022/12/09 09:16:40;;;;;;;35.57;18.43;;;-10.20;99.90;;;;;;5103615;28;20181;-75
2022/12/09 09:19:07;;;;;;;82.43;27.73;;;-10.30;99.90;;;;;;5106186;28;20425;-75
2022/12/09 09:21:33;;;;;;;111.33;30.57;;;-10.50;99.90;;;;;;5101913;28;20429;-74
2022/12/09 09:23:59;;;;;;;40.73;19.03;;;-10.30;99.90;;;;;;5102080;28;20454;-76
2022/12/09 09:26:29;;;;;;;35.63;17.30;;;-10.20;99.90;;;;;;5099482;28;20461;-76
2022/12/09 09:28:55;;;;;;;38.07;20.20;;;-9.90;99.90;;;;;;5095439;28;20522;-76
2022/12/09 09:31:22;;;;;;;34.73;17.47;;;-10.30;99.90;;;;;;5100944;28;20433;-76
2022/12/09 09:33:49;;;;;;;44.10;24.80;;;-10.10;99.90;;;;;;5098255;28;20444;-75
2022/12/09 09:36:19;;;;;;;68.43;35.57;;;-9.10;99.90;;;;;;5108293;28;20856;-74
2022/12/09 09:38:46;;;;;;;190.37;36.57;;;-10.40;99.90;;;;;;5107423;28;20811;-73
2022/12/09 09:41:17;;;;;;;37.53;18.97;;;-10.90;99.90;;;;;;5095795;28;20508;-73
2022/12/09 09:43:47;;;;;;;27.30;15.57;;;-10.60;99.90;;;;;;5095628;28;20556;-73
2022/12/09 09:46:21;;;;;;;33.17;17.33;;;-10.80;99.90;;;;;;5104139;28;20422;-74
2022/12/09 09:48:49;;;;;;;29.23;15.93;;;-10.60;99.90;;;;;;5096808;28;20433;-74
2022/12/09 09:51:21;;;;;;;26.70;15.93;;;-10.90;99.90;;;;;;5101305;28;20428;-75
2022/12/09 09:53:49;;;;;;;36.30;22.07;;;-11.10;99.90;;;;;;5097782;28;20756;-75
2022/12/09 09:56:33;;;;;;;36.27;17.50;;;-10.70;99.90;;;;;;5095566;28;20426;-76
2022/12/09 09:59:20;;;;;;;31.03;18.33;;;-8.80;99.90;;;;;;5109662;28;20422;-74
2022/12/09 10:02:14;;;;;;;31.37;16.60;;;-10.80;99.90;;;;;;5099676;28;20425;-76
2022/12/09 10:04:57;;;;;;;29.10;16.30;;;-10.70;99.90;;;;;;5095546;28;20467;-74
2022/12/09 10:07:44;;;;;;;21.83;14.27;;;-10.00;99.90;;;;;;5106332;28;20421;-76
2022/12/09 10:10:16;;;;;;;32.17;20.97;;;-10.60;99.90;;;;;;5105502;28;20872;-77
2022/12/09 10:13:16;;;;;;;39.90;31.53;;;-9.90;99.90;;;;;;5101052;28;20427;-75
2022/12/09 10:15:52;;;;;;;29.93;17.97;;;-10.10;99.90;;;;;;5103399;28;20858;-76
2022/12/09 10:18:27;;;;;;;37.27;16.70;;;-10.50;99.90;;;;;;5096864;28;20433;-75
2022/12/09 10:20:53;;;;;;;28.20;15.50;;;-10.70;99.90;;;;;;5096224;28;20445;-74
2022/12/09 10:23:20;;;;;;;99.07;22.67;;;-10.80;99.90;;;;;;5099478;28;20550;-75
2022/12/09 10:25:56;;;;;;;85.43;23.77;;;-10.70;99.90;;;;;;5101898;28;20180;-74
2022/12/09 10:28:25;;;;;;;45.13;17.53;;;-10.60;99.90;;;;;;5098200;28;20418;-75
2022/12/09 10:30:53;;;;;;;42.03;16.17;;;-9.60;99.90;;;;;;5099608;28;20754;-75
2022/12/09 10:33:25;;;;;;;29.70;16.10;;;-10.90;99.90;;;;;;5094697;28;20430;-75
2022/12/09 10:35:51;;;;;;;32.57;17.27;;;-11.00;99.90;;;;;;5093792;28;20502;-75
2022/12/09 10:38:19;;;;;;;25.47;16.50;;;-10.70;99.90;;;;;;5095022;28;20428;-75
2022/12/09 10:40:45;;;;;;;34.80;17.80;;;-10.20;99.90;;;;;;5095146;28;20441;-75
2022/12/09 10:43:35;;;;;;;28.33;16.23;;;-9.90;99.90;;;;;;5097504;28;20426;-75
2022/12/09 10:46:09;;;;;;;25.33;15.80;;;-11.20;99.90;;;;;;5101507;28;20275;-74
2022/12/09 10:48:46;;;;;;;26.77;16.13;;;-11.00;99.90;;;;;;5102026;28;20423;-75
2022/12/09 10:51:25;;;;;;;24.57;13.77;;;-11.10;99.90;;;;;;5104783;28;20425;-76
2022/12/09 10:53:53;;;;;;;30.03;15.03;;;-10.80;99.90;;;;;;5104893;28;20445;-77
2022/12/09 10:56:28;;;;;;;32.30;16.30;;;-10.40;99.90;;;;;;5098506;28;20517;-78
2022/12/09 10:59:17;;;;;;;29.13;15.80;;;-10.30;99.90;;;;;;5106045;28;20424;-76
2022/12/09 11:02:02;;;;;;;28.07;15.47;;;-9.10;99.90;;;;;;5103581;28;20418;-74
2022/12/09 11:04:48;;;;;;;34.47;15.57;;;-10.40;99.90;;;;;;5105562;28;20461;-74
2022/12/09 11:07:17;;;;;;;35.33;16.13;;;-10.10;99.90;;;;;;5113024;28;20853;-75
2022/12/09 11:10:01;;;;;;;30.67;16.80;;;-10.40;99.90;;;;;;5109213;28;20425;-74
2022/12/09 11:12:27;;;;;;;31.30;15.73;;;-10.90;99.90;;;;;;5112076;28;20423;-76
2022/12/09 11:14:57;;;;;;;29.97;17.43;;;-11.00;99.90;;;;;;5110389;28;20724;-74
2022/12/09 11:17:26;;;;;;;34.87;18.60;;;-10.40;99.90;;;;;;5105732;28;20181;-77
2022/12/09 11:20:04;;;;;;;36.30;18.67;;;-9.90;99.90;;;;;;5109632;28;20518;-74
2022/12/09 11:22:38;;;;;;;32.30;19.50;;;-10.20;99.90;;;;;;5110307;28;20684;-74
2022/12/09 11:25:10;;;;;;;35.50;19.53;;;-9.80;99.90;;;;;;5112696;28;20806;-76
2022/12/09 11:27:46;;;;;;;29.63;18.27;;;-9.90;99.90;;;;;;5109648;28;20418;-75
2022/12/09 11:30:29;;;;;;;34.47;17.17;;;-9.50;99.90;;;;;;5105687;28;20797;-75
2022/12/09 11:33:12;;;;;;;35.13;18.10;;;-9.40;99.90;;;;;;5107289;28;20443;-77
2022/12/09 11:35:44;;;;;;;30.53;18.20;;;-8.70;99.90;;;;;;5097810;28;20468;-75
2022/12/09 11:38:34;;;;;;;29.23;17.67;;;-8.10;99.90;;;;;;5105588;28;20850;-75
2022/12/09 11:44:28;;;;;;;31.80;16.93;;;-8.90;99.90;;;;;;5103199;28;20802;-74
2022/12/09 11:46:59;;;;;;;29.43;17.87;;;-9.30;99.90;;;;;;5102389;28;20519;-75
2022/12/09 11:49:26;;;;;;;32.53;19.83;;;-8.70;99.90;;;;;;5101022;28;20419;-76
2022/12/09 11:52:05;;;;;;;39.30;21.83;;;-10.30;99.90;;;;;;5096271;28;20427;-77
2022/12/09 11:54:44;;;;;;;30.17;16.60;;;-9.70;99.90;;;;;;5097635;28;20438;-76
2022/12/09 11:57:26;;;;;;;32.40;17.93;;;-9.60;99.90;;;;;;5096422;28;20427;-76
2022/12/09 11:59:58;;;;;;;33.10;19.13;;;-10.00;99.90;;;;;;5097378;28;20423;-76
2022/12/09 12:02:42;;;;;;;31.10;16.50;;;-8.60;99.90;;;;;;5097050;28;20430;-74
2022/12/09 12:05:25;;;;;;;30.43;18.57;;;-9.80;99.90;;;;;;5102268;28;20519;-74
2022/12/09 12:08:15;;;;;;;35.43;19.73;;;-10.00;99.90;;;;;;5105452;28;20426;-76
2022/12/09 12:10:50;;;;;;;50.97;22.80;;;-10.50;99.90;;;;;;5101249;28;20430;-73
2022/12/09 12:13:30;;;;;;;34.27;17.87;;;-9.90;99.90;;;;;;5102078;28;20465;-76
2022/12/09 12:16:24;;;;;;;26.60;16.87;;;-9.10;99.90;;;;;;5101270;28;20502;-75
2022/12/09 12:18:56;;;;;;;29.07;15.57;;;-9.60;99.90;;;;;;5096999;28;20443;-73
2022/12/09 12:22:00;;;;;;;32.10;18.73;;;-9.20;99.90;;;;;;5100156;28;20429;-73
2022/12/09 12:24:31;;;;;;;35.07;18.57;;;-9.10;99.90;;;;;;5110590;28;20453;-75
2022/12/09 12:27:03;;;;;;;30.27;19.53;;;-9.00;99.90;;;;;;5102587;28;20427;-75
2022/12/09 12:29:46;;;;;;;38.90;21.67;;;-9.20;99.90;;;;;;5107563;28;20461;-75
2022/12/09 12:32:38;;;;;;;34.27;19.00;;;-8.60;99.90;;;;;;5096019;28;20446;-76
2022/12/09 12:35:32;;;;;;;55.90;22.27;;;-8.60;99.90;;;;;;5099284;28;20435;-76
2022/12/09 12:38:30;;;;;;;48.67;21.47;;;-8.90;99.90;;;;;;5098148;28;20433;-74
2022/12/09 12:41:18;;;;;;;36.87;17.93;;;-8.40;99.90;;;;;;5106806;28;20434;-74
2022/12/09 12:46:56;;;;;;;32.03;18.47;;;-8.30;99.90;;;;;;5102011;28;20482;-76
2022/12/09 12:49:41;;;;;;;44.70;21.63;;;-7.70;99.90;;;;;;5101781;28;20419;-77
2022/12/09 12:52:28;;;;;;;39.10;19.00;;;-7.50;99.90;;;;;;5094152;28;20507;-75
2022/12/09 12:55:15;;;;;;;29.23;16.67;;;-7.30;99.90;;;;;;5104470;28;20446;-73
2022/12/09 12:58:04;;;;;;;27.90;15.80;;;-7.30;99.90;;;;;;5097466;28;20873;-75
2022/12/09 13:01:20;;;;;;;32.27;16.30;;;-7.80;99.90;;;;;;5105105;28;20418;-74
2022/12/09 13:04:11;;;;;;;29.43;16.00;;;-7.60;99.90;;;;;;5091764;28;20561;-72
2022/12/09 13:06:39;;;;;;;25.90;15.97;;;-7.40;99.90;;;;;;5095187;28;20453;-72
2022/12/09 13:09:15;;;;;;;45.27;18.73;;;-7.50;99.90;;;;;;5102545;28;20415;-74
2022/12/09 13:11:56;;;;;;;42.73;20.87;;;-6.70;99.90;;;;;;5104491;28;20456;-75
2022/12/09 13:14:30;;;;;;;38.33;19.90;;;-7.10;99.90;;;;;;5103942;28;20522;-75
2022/12/09 13:16:59;;;;;;;33.40;20.23;;;-8.00;99.90;;;;;;5110409;28;20421;-75
2022/12/09 13:19:34;;;;;;;31.63;18.67;;;-7.50;99.90;;;;;;5096084;28;20441;-75
2022/12/09 13:22:00;;;;;;;28.57;17.07;;;-7.40;99.90;;;;;;5095500;28;20488;-76
2022/12/09 13:24:40;;;;;;;31.17;19.17;;;-7.10;99.90;;;;;;5103987;28;20482;-74
2022/12/09 13:27:33;;;;;;;28.00;16.07;;;-7.30;99.90;;;;;;5098676;28;20418;-75
2022/12/09 13:30:29;;;;;;;43.07;17.53;;;-7.10;99.90;;;;;;5098202;28;20435;-73
2022/12/09 13:33:17;;;;;;;33.27;17.17;;;-7.30;99.90;;;;;;5092273;28;20419;-74
2022/12/09 13:35:54;;;;;;;27.77;15.23;;;-8.10;99.90;;;;;;5094695;28;20472;-74